createdAt,value
2023-03-15T00:00:07.853Z,8.99
2023-03-15T00:02:37.697Z,9.31
2023-03-15T00:05:06.793Z,9.30
2023-03-15T00:07:35.120Z,9.26
2023-03-15T00:10:04.440Z,9.34
2023-03-15T00:12:34.440Z,9.20
2023-03-15T00:15:02.726Z,8.55
2023-03-15T00:17:34.946Z,9.04
2023-03-15T00:20:06.624Z,9.20
2023-03-15T00:22:34.913Z,9.28
2023-03-15T00:25:03.244Z,9.28
2023-03-15T00:27:31.483Z,8.42
2023-03-15T00:29:59.938Z,8.30
2023-03-15T00:32:28.322Z,8.67
2023-03-15T00:34:57.243Z,8.82
2023-03-15T00:37:26.973Z,9.01
2023-03-15T00:39:55.786Z,8.97
2023-03-15T00:42:28.109Z,8.85
2023-03-15T00:44:56.754Z,8.62
2023-03-15T00:47:25.212Z,8.62
2023-03-15T00:49:53.617Z,8.60
2023-03-15T00:52:22.215Z,8.20
2023-03-15T00:54:55.047Z,7.80
2023-03-15T00:57:23.818Z,7.67
2023-03-15T00:59:53.303Z,8.23
2023-03-15T01:02:22.482Z,8.59
2023-03-15T01:04:51.380Z,8.79
2023-03-15T01:07:19.693Z,8.95
2023-03-15T01:09:48.747Z,9.10
2023-03-15T01:12:18.432Z,8.72
2023-03-15T01:14:46.706Z,9.10
2023-03-15T01:17:15.054Z,9.11
2023-03-15T01:19:43.347Z,8.92
2023-03-15T01:22:11.622Z,8.66
2023-03-15T01:24:40.165Z,8.67
2023-03-15T01:27:08.420Z,8.81
2023-03-15T01:29:38.126Z,8.87
2023-03-15T01:32:07.282Z,9.00
2023-03-15T01:34:35.769Z,9.28
2023-03-15T01:37:04.254Z,8.81
2023-03-15T01:39:32.797Z,8.85
2023-03-15T01:42:01.050Z,8.26
2023-03-15T01:44:52.710Z,7.56
2023-03-15T01:47:21.579Z,7.14
2023-03-15T01:49:54.356Z,7.54
2023-03-15T01:52:25.475Z,7.74
2023-03-15T01:54:58.260Z,7.39
2023-03-15T01:57:31.485Z,6.98
2023-03-15T02:00:10.841Z,6.86
2023-03-15T02:02:41.406Z,7.54
2023-03-15T02:05:12.991Z,7.58
2023-03-15T02:07:50.187Z,7.94
2023-03-15T02:10:24.559Z,7.84
2023-03-15T02:12:54.098Z,7.94
2023-03-15T02:15:23.878Z,7.18
2023-03-15T02:17:52.240Z,7.80
2023-03-15T02:20:35.827Z,7.58
2023-03-15T02:23:06.682Z,8.32
2023-03-15T02:25:42.699Z,8.02
2023-03-15T02:28:15.185Z,7.81
2023-03-15T02:30:44.578Z,8.06
2023-03-15T02:33:19.045Z,8.50
2023-03-15T02:35:47.371Z,7.68
2023-03-15T02:38:15.584Z,7.48
2023-03-15T02:40:45.868Z,7.68
2023-03-15T02:43:19.412Z,7.35
2023-03-15T02:45:48.727Z,7.47
2023-03-15T02:48:18.814Z,7.79
2023-03-15T02:50:47.159Z,7.89
2023-03-15T02:53:15.457Z,7.74
2023-03-15T02:55:43.666Z,7.13
2023-03-15T02:58:11.941Z,6.65
2023-03-15T03:00:41.627Z,6.60
2023-03-15T03:03:09.817Z,6.83
2023-03-15T03:05:38.169Z,7.61
2023-03-15T03:08:07.242Z,7.77
2023-03-15T03:10:35.554Z,7.81
2023-03-15T03:13:03.848Z,7.83
2023-03-15T03:15:32.189Z,7.94
2023-03-15T03:18:01.850Z,7.94
2023-03-15T03:20:30.178Z,8.01
2023-03-15T03:22:58.584Z,8.12
2023-03-15T03:25:27.456Z,8.14
2023-03-15T03:27:57.540Z,7.71
2023-03-15T03:30:26.229Z,7.27
2023-03-15T03:32:54.687Z,6.62
2023-03-15T03:35:24.518Z,6.16
2023-03-15T03:37:54.052Z,5.68
2023-03-15T03:40:22.281Z,6.79
2023-03-15T03:42:50.610Z,7.25
2023-03-15T03:45:19.041Z,7.56
2023-03-15T03:47:48.207Z,7.64
2023-03-15T03:50:16.710Z,7.73
2023-03-15T03:52:46.471Z,7.86
2023-03-15T03:55:15.209Z,7.95
2023-03-15T03:57:44.257Z,7.82
2023-03-15T04:00:15.610Z,7.69
2023-03-15T04:02:44.151Z,6.99
2023-03-15T04:05:13.004Z,6.38
2023-03-15T04:07:41.567Z,6.05
2023-03-15T04:10:15.016Z,6.34
2023-03-15T04:12:44.016Z,6.35
2023-03-15T04:15:13.782Z,6.44
2023-03-15T04:17:42.092Z,5.91
2023-03-15T04:20:15.659Z,5.58
2023-03-15T04:22:49.797Z,5.78
2023-03-15T04:25:20.585Z,6.04
2023-03-15T04:27:58.778Z,6.55
2023-03-15T04:30:28.360Z,6.47
2023-03-15T04:32:59.262Z,5.80
2023-03-15T04:35:27.994Z,6.73
2023-03-15T04:37:57.177Z,7.00
2023-03-15T04:40:27.127Z,7.09
2023-03-15T04:42:57.965Z,7.30
2023-03-15T04:45:27.144Z,7.14
2023-03-15T04:47:56.482Z,6.67
2023-03-15T04:50:25.931Z,5.99
2023-03-15T04:52:54.451Z,6.26
2023-03-15T04:55:22.852Z,6.50
2023-03-15T04:57:52.629Z,6.55
2023-03-15T05:00:21.842Z,6.66
2023-03-15T05:02:55.181Z,6.42
2023-03-15T05:05:24.686Z,6.07
2023-03-15T05:07:53.109Z,5.88
2023-03-15T05:10:21.578Z,5.78
2023-03-15T05:12:50.068Z,6.29
2023-03-15T05:15:19.956Z,6.06
2023-03-15T05:17:49.090Z,6.65
2023-03-15T05:20:17.949Z,6.76
2023-03-15T05:22:46.283Z,6.37
2023-03-15T05:25:15.530Z,5.84
2023-03-15T05:27:46.553Z,5.94
2023-03-15T05:30:16.658Z,6.05
2023-03-15T05:32:46.309Z,6.82
2023-03-15T05:35:15.066Z,7.54
2023-03-15T05:37:43.347Z,6.99
2023-03-15T05:40:12.889Z,7.23
2023-03-15T05:42:41.346Z,7.48
2023-03-15T05:45:10.646Z,7.55
2023-03-15T05:47:38.903Z,7.04
2023-03-15T05:50:09.365Z,7.01
2023-03-15T05:52:37.708Z,7.28
2023-03-15T05:55:06.483Z,7.20
2023-03-15T05:57:34.831Z,7.54
2023-03-15T06:00:06.006Z,7.72
2023-03-15T06:02:34.336Z,7.80
2023-03-15T06:05:02.703Z,7.76
2023-03-15T06:07:32.368Z,7.58
2023-03-15T06:10:01.730Z,6.87
2023-03-15T06:12:29.974Z,7.08
2023-03-15T06:14:58.294Z,7.43
2023-03-15T06:17:26.591Z,7.78
2023-03-15T06:19:55.075Z,8.37
2023-03-15T06:22:24.733Z,8.79
2023-03-15T06:24:54.374Z,9.09
2023-03-15T06:27:22.905Z,9.47
2023-03-15T06:29:51.453Z,8.99
2023-03-15T06:32:19.726Z,8.98
2023-03-15T06:34:48.026Z,8.78
2023-03-15T06:37:22.849Z,8.63
2023-03-15T06:39:55.447Z,8.69
2023-03-15T06:42:23.807Z,9.36
2023-03-15T06:44:52.058Z,9.34
2023-03-15T06:47:20.400Z,9.49
2023-03-15T06:49:50.544Z,9.68
2023-03-15T06:52:19.325Z,10.18
2023-03-15T06:54:47.622Z,10.62
2023-03-15T06:57:17.741Z,10.73
2023-03-15T06:59:46.731Z,10.88
2023-03-15T07:02:16.509Z,11.01
2023-03-15T07:04:45.952Z,11.01
2023-03-15T07:07:14.796Z,11.36
2023-03-15T07:09:43.317Z,12.02
2023-03-15T07:12:12.749Z,12.06
2023-03-15T07:14:42.585Z,11.59
2023-03-15T07:17:11.023Z,13.01
2023-03-15T07:19:50.137Z,13.42
2023-03-15T07:22:18.594Z,13.95
2023-03-15T07:24:46.909Z,13.24
2023-03-15T07:27:18.277Z,14.10
2023-03-15T07:29:50.354Z,14.38
2023-03-15T07:32:18.974Z,13.53
2023-03-15T07:34:47.259Z,13.40
2023-03-15T07:37:16.023Z,12.77
2023-03-15T07:39:44.293Z,15.21
2023-03-15T07:42:12.828Z,14.90
2023-03-15T07:44:41.175Z,15.44
2023-03-15T07:47:11.439Z,16.26
2023-03-15T07:49:39.714Z,16.16
2023-03-15T07:52:08.673Z,16.22
2023-03-15T07:54:37.027Z,16.12
2023-03-15T07:57:06.035Z,15.13
2023-03-15T07:59:34.551Z,15.01
2023-03-15T08:02:03.217Z,15.90
2023-03-15T08:04:35.034Z,15.91
2023-03-15T08:07:04.060Z,15.99
2023-03-15T08:09:34.815Z,15.44
2023-03-15T08:12:03.612Z,16.04
2023-03-15T08:14:32.380Z,14.92
2023-03-15T08:17:00.655Z,13.75
2023-03-15T08:19:28.954Z,14.26
2023-03-15T08:21:58.533Z,14.25
2023-03-15T08:24:27.190Z,14.07
2023-03-15T08:26:55.514Z,14.42
2023-03-15T08:29:23.772Z,14.41
2023-03-15T08:31:52.456Z,14.42
2023-03-15T08:34:21.820Z,14.28
2023-03-15T08:36:51.276Z,14.30
2023-03-15T08:39:21.054Z,13.58
2023-03-15T08:41:50.587Z,13.66
2023-03-15T08:44:19.098Z,14.35
2023-03-15T08:46:47.454Z,14.72
2023-03-15T08:49:15.756Z,14.26
2023-03-15T08:51:44.030Z,13.27
2023-03-15T08:54:13.646Z,13.71
2023-03-15T08:56:43.680Z,13.70
2023-03-15T08:59:19.269Z,14.89
2023-03-15T09:01:50.643Z,14.41
2023-03-15T09:04:18.955Z,13.97
2023-03-15T09:06:47.166Z,13.51
2023-03-15T09:09:17.457Z,13.20
2023-03-15T09:11:47.232Z,13.82
2023-03-15T09:14:15.525Z,13.85
2023-03-15T09:16:44.033Z,13.88
2023-03-15T09:19:12.444Z,14.46
2023-03-15T09:21:41.452Z,14.35
2023-03-15T09:24:10.296Z,14.25
2023-03-15T09:26:38.518Z,14.05
2023-03-15T09:29:09.631Z,14.37
2023-03-15T09:31:37.937Z,13.84
2023-03-15T09:34:06.304Z,13.34
2023-03-15T09:36:34.915Z,13.48
2023-03-15T09:39:03.577Z,13.94
2023-03-15T09:41:43.715Z,13.92
2023-03-15T09:44:28.313Z,13.35
2023-03-15T09:47:07.585Z,13.40
2023-03-15T09:49:45.468Z,13.32
2023-03-15T09:52:27.732Z,13.35
2023-03-15T09:55:01.382Z,13.58
2023-03-15T09:57:40.513Z,13.94
2023-03-15T10:00:16.806Z,13.65
2023-03-15T10:02:53.384Z,13.39
2023-03-15T10:05:25.328Z,13.61
2023-03-15T10:07:53.737Z,13.61
2023-03-15T10:10:28.959Z,13.77
2023-03-15T10:13:04.354Z,13.93
2023-03-15T10:15:45.461Z,13.63
2023-03-15T10:18:28.141Z,13.74
2023-03-15T10:21:05.527Z,13.66
2023-03-15T10:23:42.641Z,13.46
2023-03-15T10:26:15.793Z,13.48
2023-03-15T10:28:46.216Z,12.99
2023-03-15T10:31:25.720Z,13.31
2023-03-15T10:34:00.924Z,13.50
2023-03-15T10:36:29.272Z,13.87
2023-03-15T10:38:58.939Z,14.09
2023-03-15T10:41:31.878Z,14.73
2023-03-15T10:44:03.331Z,14.38
2023-03-15T10:46:33.162Z,15.05
2023-03-15T10:49:09.646Z,14.58
2023-03-15T10:51:41.686Z,14.70
2023-03-15T10:54:15.047Z,14.46
2023-03-15T10:56:49.809Z,14.77
2023-03-15T10:59:20.733Z,15.11
2023-03-15T11:01:53.858Z,15.27
2023-03-15T11:04:24.186Z,14.21
2023-03-15T11:07:03.218Z,13.88
2023-03-15T11:09:40.841Z,14.19
2023-03-15T11:12:10.866Z,15.23
2023-03-15T11:14:42.369Z,14.38
2023-03-15T11:17:21.445Z,15.74
2023-03-15T11:19:57.971Z,16.10
2023-03-15T11:22:26.604Z,15.94
2023-03-15T11:24:55.909Z,16.33
2023-03-15T11:27:26.119Z,15.80
2023-03-15T11:29:58.456Z,16.12
2023-03-15T11:32:31.151Z,15.35
2023-03-15T11:35:03.721Z,14.46
2023-03-15T11:37:39.928Z,16.34
2023-03-15T11:40:17.431Z,15.70
2023-03-15T11:42:50.679Z,15.49
2023-03-15T11:45:34.870Z,14.54
2023-03-15T11:48:12.478Z,15.43
2023-03-15T11:50:41.043Z,15.95
2023-03-15T11:53:12.238Z,15.84
2023-03-15T11:55:40.912Z,15.96
2023-03-15T11:58:34.074Z,16.07
2023-03-15T12:01:06.233Z,15.57
2023-03-15T12:03:42.194Z,15.77
2023-03-15T12:06:36.211Z,15.00
2023-03-15T12:09:40.958Z,15.03
2023-03-15T12:12:37.062Z,15.06
2023-03-15T12:15:08.850Z,15.22
2023-03-15T12:17:45.515Z,14.71
2023-03-15T12:20:28.315Z,15.39
2023-03-15T12:23:21.388Z,14.85
2023-03-15T12:25:55.615Z,15.70
2023-03-15T12:28:28.778Z,15.22
2023-03-15T12:31:01.963Z,14.59
2023-03-15T12:33:32.859Z,16.39
2023-03-15T12:36:06.245Z,15.90
2023-03-15T12:38:38.549Z,15.19
2023-03-15T12:41:09.603Z,14.74
2023-03-15T12:43:41.204Z,15.03
2023-03-15T12:46:29.682Z,15.39
2023-03-15T12:49:12.557Z,15.07
2023-03-15T12:51:45.919Z,15.30
2023-03-15T12:54:17.327Z,15.52
2023-03-15T12:56:51.782Z,15.64
2023-03-15T12:59:34.421Z,15.56
2023-03-15T13:02:05.037Z,16.35
2023-03-15T13:04:34.760Z,17.19
2023-03-15T13:07:15.288Z,16.93
2023-03-15T13:10:11.356Z,16.28
2023-03-15T13:12:44.784Z,16.13
2023-03-15T13:15:17.549Z,16.30
2023-03-15T13:17:51.366Z,16.24
2023-03-15T13:20:40.103Z,16.14
2023-03-15T13:23:16.313Z,17.25
2023-03-15T13:25:55.862Z,17.46
2023-03-15T13:28:26.060Z,17.44
2023-03-15T13:30:55.859Z,16.19
2023-03-15T13:33:26.619Z,15.51
2023-03-15T13:36:01.717Z,15.87
2023-03-15T13:38:32.940Z,15.51
2023-03-15T13:41:03.828Z,15.46
2023-03-15T13:43:34.543Z,15.01
2023-03-15T13:46:02.977Z,14.66
2023-03-15T13:48:33.486Z,14.15
2023-03-15T13:51:06.680Z,13.99
2023-03-15T13:53:49.155Z,13.59
2023-03-15T13:56:20.142Z,11.89
2023-03-15T13:58:50.358Z,14.03
2023-03-15T14:01:19.447Z,13.86
2023-03-15T14:03:53.973Z,13.57
2023-03-15T14:06:26.248Z,13.34
2023-03-15T14:08:56.506Z,13.12
2023-03-15T14:11:37.537Z,13.36
2023-03-15T14:14:22.165Z,13.05
2023-03-15T14:17:04.334Z,12.80
2023-03-15T14:19:35.637Z,12.95
2023-03-15T14:22:15.870Z,12.62
2023-03-15T14:24:47.932Z,12.41
2023-03-15T14:27:19.281Z,12.57
2023-03-15T14:29:49.369Z,12.67
2023-03-15T14:32:30.280Z,12.48
2023-03-15T14:35:02.321Z,12.99
2023-03-15T14:37:37.017Z,12.99
2023-03-15T14:40:15.877Z,12.53
2023-03-15T14:42:44.699Z,12.54
2023-03-15T14:45:13.637Z,12.83
2023-03-15T14:47:55.983Z,12.38
2023-03-15T14:50:28.126Z,12.77
2023-03-15T14:52:59.611Z,13.04
2023-03-15T14:55:33.655Z,13.08
2023-03-15T14:58:02.515Z,12.59
2023-03-15T15:00:31.326Z,12.16
2023-03-15T15:03:00.209Z,12.73
2023-03-15T15:05:30.039Z,13.13
2023-03-15T15:08:04.514Z,12.99
2023-03-15T15:10:35.012Z,12.98
2023-03-15T15:13:06.677Z,13.23
2023-03-15T15:15:53.929Z,12.38
2023-03-15T15:18:23.693Z,12.65
2023-03-15T15:20:55.841Z,12.62
2023-03-15T15:23:28.250Z,12.96
2023-03-15T15:25:59.468Z,12.73
2023-03-15T15:28:35.785Z,12.61
2023-03-15T15:31:05.719Z,12.56
2023-03-15T15:33:34.245Z,12.88
2023-03-15T15:36:03.064Z,12.51
2023-03-15T15:38:39.045Z,12.45
2023-03-15T15:41:13.698Z,12.19
2023-03-15T15:43:42.538Z,12.29
2023-03-15T15:46:12.637Z,12.52
2023-03-15T15:48:41.959Z,12.44
2023-03-15T15:51:24.514Z,12.72
2023-03-15T15:53:55.010Z,12.80
2023-03-15T15:56:28.101Z,12.49
2023-03-15T15:58:57.608Z,12.35
2023-03-15T16:01:26.512Z,12.30
2023-03-15T16:03:54.879Z,12.14
2023-03-15T16:06:23.915Z,11.76
2023-03-15T16:08:54.420Z,12.03
2023-03-15T16:11:23.154Z,12.05
2023-03-15T16:13:53.985Z,11.81
2023-03-15T16:16:22.553Z,12.01
2023-03-15T16:18:51.167Z,12.00
2023-03-15T16:21:24.765Z,12.01
2023-03-15T16:24:00.062Z,11.95
2023-03-15T16:26:29.250Z,11.94
2023-03-15T16:28:57.565Z,11.80
2023-03-15T16:31:26.054Z,11.61
2023-03-15T16:33:54.531Z,11.48
2023-03-15T16:36:27.964Z,11.34
2023-03-15T16:38:58.265Z,11.99
2023-03-15T16:41:26.996Z,11.79
2023-03-15T16:43:55.326Z,11.68
2023-03-15T16:46:23.669Z,11.26
2023-03-15T16:48:51.990Z,11.36
2023-03-15T16:51:20.408Z,11.41
2023-03-15T16:53:48.729Z,11.37
2023-03-15T16:56:19.067Z,11.48
2023-03-15T16:58:51.309Z,11.41
2023-03-15T17:01:20.196Z,11.10
2023-03-15T17:03:48.556Z,11.16
2023-03-15T17:06:20.372Z,11.47
2023-03-15T17:08:49.094Z,11.18
2023-03-15T17:11:19.450Z,11.14
2023-03-15T17:13:47.921Z,11.54
2023-03-15T17:16:17.128Z,11.48
2023-03-15T17:18:47.132Z,11.92
2023-03-15T17:21:17.931Z,12.02
2023-03-15T17:23:46.847Z,11.86
2023-03-15T17:26:17.704Z,12.47
2023-03-15T17:28:47.871Z,11.72
2023-03-15T17:31:24.991Z,12.30
2023-03-15T17:33:53.800Z,12.67
2023-03-15T17:36:24.686Z,12.55
2023-03-15T17:38:53.240Z,12.31
2023-03-15T17:41:23.257Z,11.21
2023-03-15T17:43:53.094Z,12.35
2023-03-15T17:46:28.278Z,12.19
2023-03-15T17:48:57.510Z,11.74
2023-03-15T17:51:28.449Z,11.83
2023-03-15T17:53:57.903Z,11.87
2023-03-15T17:56:26.575Z,11.70
2023-03-15T17:58:56.876Z,11.95
2023-03-15T18:01:28.488Z,12.18
2023-03-15T18:03:57.392Z,12.02
2023-03-15T18:06:25.823Z,12.27
2023-03-15T18:08:54.161Z,12.46
2023-03-15T18:11:26.538Z,12.57
2023-03-15T18:13:56.853Z,12.71
2023-03-15T18:16:25.752Z,12.67
2023-03-15T18:18:54.193Z,12.68
2023-03-15T18:21:24.710Z,12.63
2023-03-15T18:23:54.144Z,12.56
2023-03-15T18:26:23.099Z,12.09
2023-03-15T18:28:51.689Z,12.31
2023-03-15T18:31:23.852Z,11.83
2023-03-15T18:33:54.115Z,11.89
2023-03-15T18:36:22.736Z,12.10
2023-03-15T18:38:51.158Z,12.18
2023-03-15T18:41:21.906Z,11.89
2023-03-15T18:43:51.713Z,11.84
2023-03-15T18:46:24.464Z,11.85
2023-03-15T18:48:54.631Z,11.87
2023-03-15T18:51:25.856Z,11.72
2023-03-15T18:53:54.568Z,11.81
2023-03-15T18:56:24.556Z,11.74
2023-03-15T18:58:56.307Z,11.45
2023-03-15T19:01:26.217Z,11.57
2023-03-15T19:03:55.738Z,11.44
2023-03-15T19:06:24.582Z,11.77
2023-03-15T19:08:54.905Z,11.92
2023-03-15T19:11:24.638Z,11.96
2023-03-15T19:13:53.627Z,11.37
2023-03-15T19:16:22.430Z,11.97
2023-03-15T19:18:53.800Z,11.49
2023-03-15T19:21:24.328Z,11.85
2023-03-15T19:23:52.595Z,11.40
2023-03-15T19:26:21.015Z,11.08
2023-03-15T19:28:49.378Z,11.19
2023-03-15T19:31:18.220Z,11.32
2023-03-15T19:33:46.460Z,11.54
2023-03-15T19:36:17.173Z,11.40
2023-03-15T19:38:46.615Z,10.98
2023-03-15T19:41:15.326Z,10.32
2023-03-15T19:43:43.762Z,10.22
2023-03-15T19:46:14.043Z,10.10
2023-03-15T19:48:42.674Z,9.98
2023-03-15T19:51:10.904Z,9.88
2023-03-15T19:53:41.054Z,9.85
2023-03-15T19:56:10.830Z,9.57
2023-03-15T19:58:39.089Z,9.39
2023-03-15T20:01:07.634Z,9.29
2023-03-15T20:03:36.035Z,9.25
2023-03-15T20:06:09.504Z,9.58
2023-03-15T20:08:37.989Z,9.20
2023-03-15T20:11:08.107Z,9.54
2023-03-15T20:13:37.227Z,9.58
2023-03-15T20:16:06.768Z,8.83
2023-03-15T20:18:35.037Z,9.51
2023-03-15T20:21:03.329Z,9.59
2023-03-15T20:23:32.079Z,9.44
2023-03-15T20:26:10.995Z,8.54
2023-03-15T20:28:39.923Z,9.09
2023-03-15T20:31:09.866Z,8.88
2023-03-15T20:33:38.488Z,8.78
2023-03-15T20:36:07.617Z,8.71
2023-03-15T20:38:37.370Z,8.54
2023-03-15T20:41:08.644Z,8.53
2023-03-15T20:43:36.878Z,8.55
2023-03-15T20:46:05.557Z,8.35
2023-03-15T20:48:36.240Z,8.16
2023-03-15T20:51:05.688Z,7.88
2023-03-15T20:53:35.222Z,8.39
2023-03-15T20:56:04.968Z,8.59
2023-03-15T20:58:34.725Z,8.06
2023-03-15T21:01:04.165Z,8.00
2023-03-15T21:03:34.221Z,7.97
2023-03-15T21:06:03.052Z,8.14
2023-03-15T21:08:31.404Z,7.98
2023-03-15T21:10:59.821Z,8.12
2023-03-15T21:13:28.152Z,8.17
2023-03-15T21:15:58.468Z,7.81
2023-03-15T21:18:27.109Z,8.03
2023-03-15T21:20:59.412Z,8.12
2023-03-15T21:23:31.377Z,7.47
2023-03-15T21:26:00.411Z,7.73
2023-03-15T21:28:28.981Z,8.23
2023-03-15T21:30:59.119Z,8.11
2023-03-15T21:33:29.489Z,7.82
2023-03-15T21:35:59.259Z,7.83
2023-03-15T21:38:28.053Z,7.72
2023-03-15T21:40:59.403Z,7.73
2023-03-15T21:43:29.206Z,7.86
2023-03-15T21:46:01.411Z,7.43
2023-03-15T21:48:30.704Z,7.81
2023-03-15T21:50:59.000Z,8.22
2023-03-15T21:53:27.330Z,8.41
2023-03-15T21:55:57.510Z,8.64
2023-03-15T21:58:26.680Z,8.75
2023-03-15T22:01:00.800Z,8.76
2023-03-15T22:03:29.728Z,8.45
2023-03-15T22:05:58.324Z,8.86
2023-03-15T22:08:26.991Z,8.83
2023-03-15T22:10:55.923Z,8.84
2023-03-15T22:13:24.632Z,8.78
2023-03-15T22:15:53.567Z,8.81
2023-03-15T22:18:23.606Z,8.77
2023-03-15T22:20:52.806Z,8.70
2023-03-15T22:23:21.862Z,8.77
2023-03-15T22:25:50.422Z,8.97
2023-03-15T22:28:18.655Z,9.12
2023-03-15T22:30:49.374Z,9.17
2023-03-15T22:33:18.044Z,9.18
2023-03-15T22:35:47.822Z,9.21
2023-03-15T22:38:16.130Z,9.17
2023-03-15T22:40:44.351Z,8.97
2023-03-15T22:43:12.679Z,8.97
2023-03-15T22:45:42.377Z,9.00
2023-03-15T22:48:10.717Z,9.05
2023-03-15T22:50:38.985Z,8.72
2023-03-15T22:53:08.823Z,8.80
2023-03-15T22:55:37.114Z,9.15
2023-03-15T22:58:05.510Z,9.17
2023-03-15T23:00:34.112Z,9.10
2023-03-15T23:03:02.484Z,8.99
2023-03-15T23:05:30.817Z,9.10
2023-03-15T23:07:59.246Z,8.82
2023-03-15T23:10:28.905Z,9.22
2023-03-15T23:12:57.183Z,9.20
2023-03-15T23:15:26.362Z,9.21
2023-03-15T23:17:55.806Z,9.27
2023-03-15T23:20:25.613Z,9.20
2023-03-15T23:22:54.205Z,9.17
2023-03-15T23:25:23.897Z,9.05
2023-03-15T23:27:53.600Z,9.03
2023-03-15T23:30:22.189Z,9.07
2023-03-15T23:32:52.376Z,9.03
2023-03-15T23:35:21.391Z,9.16
2023-03-15T23:37:49.780Z,9.12
2023-03-15T23:40:19.569Z,9.24
2023-03-15T23:42:48.495Z,9.22
2023-03-15T23:45:18.273Z,9.09
2023-03-15T23:47:46.580Z,9.09
2023-03-15T23:50:14.932Z,9.03
2023-03-15T23:52:43.263Z,8.75
2023-03-15T23:55:12.479Z,8.80
2023-03-15T23:57:40.830Z,8.67
